Flight Track Log - Related Links

Times and Time Zones

All times are in EDT time to prevent confusion due to time zone crossing. See the UCA596 flight status page for this flight to view local times or setup timezone preferences in your user account.

Time Position Orientation Groundspeed Altitude Reporting Facility
EDT Latitude Longitude Course Direction KTS MPH feet Rate Location/Type
Fri 02:20:54 PM 38.9667 -77.5167 288° West 147 169 2,200  Level Potomac TRACON
Fri 02:21:55 PM 38.9833 -77.5833 288° West 177 204 3,500 1,409 Climbing Potomac TRACON
Fri 02:22:49 PM 39.0000 -77.6333 293° West 177 204 4,900 1,579 Climbing Potomac TRACON
Fri 02:23:49 PM 39.0500 -77.6667 333° Northwest 184 212 6,500 1,388 Climbing Potomac TRACON
Fri 02:24:50 PM 39.1000 -77.6833 345° North 189 217 7,700 942 Climbing Potomac TRACON
Fri 02:25:50 PM 39.1500 -77.7000 346° North 220 253 8,400 850 Climbing Potomac TRACON
Fri 02:26:50 PM 39.2167 -77.7167 349° North 223 257 9,400 898 Climbing Potomac TRACON
Fri 02:27:57 PM 39.2725 -77.6775 29° Northeast 237 273 10,300 791 Climbing Washington Center
Fri 02:28:59 PM 39.3294 -77.6414 26° Northeast 231 266 11,100 780 Climbing Washington Center
Fri 02:30:00 PM 39.3883 -77.6083 23° Northeast 226 260 11,900 814 Climbing Washington Center
Fri 02:30:57 PM 39.4475 -77.5722 25° Northeast 226 260 12,700 923 Climbing Washington Center
Fri 02:31:57 PM 39.5064 -77.5389 24° Northeast 226 260 13,700 821 Climbing Washington Center
Fri 02:33:45 PM 39.6058 -77.4783 25° Northeast 227 261 15,000 754 Climbing New York Center
Fri 02:34:44 PM 39.6719 -77.4522 17° North 225 259 15,800 706 Climbing New York Center
Fri 02:35:44 PM 39.7275 -77.4306 17° North 226 260 16,400 650 Climbing New York Center
Fri 02:36:44 PM 39.7939 -77.3961 22° Northeast 232 267 17,100 645 Climbing New York Center
Fri 02:37:45 PM 39.8475 -77.3689 21° North 232 267 17,700 595 Climbing New York Center
Fri 02:38:45 PM 39.9142 -77.3344 22° Northeast 237 273 18,300 605 Climbing New York Center
Fri 02:39:44 PM 39.9700 -77.3044 22° Northeast 237 273 18,900 353 Climbing New York Center
Fri 02:40:44 PM 40.0408 -77.2706 20° North 237 273 19,000 50 Climbing New York Center
Fri 02:41:44 PM 40.1008 -77.2408 21° North 250 288 19,000  Level New York Center
Fri 02:42:44 PM 40.1781 -77.1989 23° Northeast 260 299 19,000  Level New York Center
Fri 02:43:44 PM 40.2403 -77.1667 22° Northeast 260 299 19,000  Level New York Center
Fri 02:44:44 PM 40.3194 -77.1278 21° North 260 299 19,000  Level New York Center
Fri 02:45:44 PM 40.3817 -77.0953 22° Northeast 260 299 19,000  Level New York Center
Fri 02:46:44 PM 40.4589 -77.0558 21° North 260 299 19,000 -100 Level New York Center
Fri 02:47:44 PM 40.5233 -77.0208 22° Northeast 266 306 18,800 -600 Descending New York Center
Fri 02:48:44 PM 40.6050 -76.9764 22° Northeast 272 313 17,800 -994 Descending New York Center
Fri 02:50:00 PM 40.6860 -76.9323 22° Northeast  Level FlightAware Approximate
Fri 02:50:45 PM 40.7592 -76.8944 22° Northeast 296 341 15,800  Level New York Center
Fri 02:51:45 PM 40.8178 -76.8503 30° Northeast 276 318 15,000 -403 Descending New York Center
Fri 02:52:44 PM 40.8886 -76.8100 23° Northeast 247 284 15,000  Level New York Center
Fri 02:53:44 PM 40.9422 -76.7817 22° Northeast 239 275 15,000 -50 Level New York Center
Fri 02:54:44 PM 41.0150 -76.7442 21° North 239 275 14,900  Descending New York Center
Fri 02:55:44 PM 41.0831 -76.7117 20° North 244 281 15,000  Climbing New York Center
Fri 02:56:44 PM 41.1497 -76.6733 23° Northeast 250 288 14,900 -50 Descending New York Center
Fri 02:57:44 PM 41.2181 -76.6378 21° North 257 296 14,900  Level New York Center
Fri 02:58:44 PM 41.2803 -76.6047 22° Northeast 257 296 14,900  Level New York Center
Fri 02:59:44 PM 41.3572 -76.5642 22° Northeast 257 296 14,900  Level New York Center
Fri 03:00:44 PM 41.4256 -76.5286 21° North 257 296 14,900 -99 Level New York Center
Fri 03:01:45 PM 41.4961 -76.4931 21° North 257 296 14,700 -600 Descending New York Center
Fri 03:02:44 PM 41.5622 -76.4572 22° Northeast 265 305 13,700 -1,059 Descending New York Center
Fri 03:03:44 PM 41.6369 -76.4192 21° North 280 322 12,600 -1,150 Descending New York Center
Fri 03:04:44 PM 41.7203 -76.3733 22° Northeast 280 322 11,400 -1,388 Descending New York Center
Fri 03:05:45 PM 41.7908 -76.3347 22° Northeast 280 322 9,800 -1,550 Descending New York Center
Fri 03:06:44 PM 41.8558 -76.2844 30° Northeast 270 311 8,300 -1,361 Descending New York Center
Fri 03:07:44 PM 41.9100 -76.2389 32° Northeast 263 303 7,100 -1,100 Descending New York Center
Fri 03:08:44 PM 41.9728 -76.1828 34° Northeast 263 303 6,100 -1,150 Descending New York Center
Fri 03:09:44 PM 42.0383 -76.1183 36° Northeast 268 308 4,800 -1,050 Descending New York Center
Fri 03:10:44 PM 42.0847 -76.0550 45° Northeast 263 303 4,000 -800 Descending New York Center
Fri 03:11:44 PM 42.1233 -75.9853 53° Northeast 244 281 3,200 -744 Descending New York Center
Fri 03:12:45 PM 42.1708 -75.9472 31° Northeast 217 250 2,500 -595 Descending New York Center
Fri 03:13:45 PM 42.2172 -75.9283 17° North 173 199 2,000 5,250 Descending New York Center
Fri 03:14:45 PM 42.2603 -75.8953 30° Northeast 173 199 13,000 5,500 Climbing New York Center
Fri 03:15:45 PM 42.3033 -75.8650 27° Northeast 173 199 13,000  Level New York Center
Fri 03:16:44 PM 42.3464 -75.8319 30° Northeast 173 199 13,000  Level New York Center
Fri 03:17:45 PM 42.3636 -75.8192 29° Northeast 173 199 13,000  Level New York Center
Fri 03:19:00 PM 42.2904 -75.8853 214° Southwest  Level FlightAware Approximate
Fri 03:26:00 PM 42.2000 -75.9667 220° Southwest  Level FlightAware Approximate
Fri 03:27:00 PM 42.2086 -75.9797 220° Southwest  Level Estimated
Fri 03:28:00 PM 42.2086 -75.9797 220° Southwest  Level Estimated
Fri 03:29:00 PM 42.2086 -75.9797 220° Southwest  Level Estimated
Fri 03:30:00 PM 42.2086 -75.9797 220° Southwest  Level Estimated
Fri 03:31:00 PM 42.2086 -75.9797 220° Southwest  Level Estimated
Fri 03:32:00 PM 42.2086 -75.9797 220° Southwest  Level Estimated
Fri 03:33:00 PM 42.2086 -75.9797 220° Southwest  Level Estimated
Fri 03:34:00 PM 42.2086 -75.9797 220° Southwest  Level Estimated
Fri 03:35:00 PM 42.2086 -75.9797 220° Southwest  Level Estimated

Login

Don't have an account? Register now (free) for customized features, flight alerts, and more!